Time;durP1;ratioP1;P1;durP2;ratioP2;P2;SDS_P1;SDS_P2;PMS_P1;PMS_P2;Temp;Humidity;BMP_temperature;BMP_pressure;BME280_temperature;BME280_humidity;BME280_pressure;Samples;Min_cycle;Max_cycle;Signal;HPM_P1;HPM_P2
2022/12/14 00:02:12;;;;;;;9.93;5.32;;;;;;;-4.10;47.71;94188.75;5023612;28;20101;-76
2022/12/14 00:04:38;;;;;;;10.18;5.55;;;;;;;-4.61;52.27;94193.56;5010495;28;20077;-75
2022/12/14 00:07:03;;;;;;;11.73;6.22;;;;;;;-4.28;50.59;94180.63;5044139;28;20139;-74
2022/12/14 00:09:29;;;;;;;11.48;6.22;;;;;;;-4.36;50.40;94176.03;5027360;28;20409;-78
2022/12/14 00:11:54;;;;;;;11.43;6.38;;;;;;;-4.14;48.18;94176.13;5045817;28;20131;-75
2022/12/14 00:14:20;;;;;;;9.98;5.93;;;;;;;-4.31;46.25;94171.31;5045086;28;20116;-77
2022/12/14 00:16:45;;;;;;;11.02;5.88;;;;;;;-4.58;47.18;94166.53;5012263;28;20090;-75
2022/12/14 00:19:10;;;;;;;11.40;6.07;;;;;;;-4.52;46.78;94167.81;5030726;28;20089;-75
2022/12/14 00:21:36;;;;;;;12.98;6.80;;;;;;;-4.52;48.41;94158.22;5044800;28;20200;-77
2022/12/14 00:24:01;;;;;;;10.90;6.43;;;;;;;-4.40;46.55;94166.84;5047653;28;20131;-75
2022/12/14 00:26:29;;;;;;;10.95;5.82;;;;;;;-4.37;50.22;94165.78;5046117;28;20104;-76
2022/12/14 00:28:55;;;;;;;9.98;6.00;;;;;;;-4.50;49.32;94166.75;5021369;28;20119;-74
2022/12/14 00:31:21;;;;;;;12.50;6.78;;;;;;;-4.39;48.82;94159.88;5046474;28;20086;-78
2022/12/14 00:33:46;;;;;;;12.57;7.00;;;;;;;-4.40;50.51;94155.59;5045267;28;20540;-77
2022/12/14 00:36:12;;;;;;;12.95;6.75;;;;;;;-4.37;52.02;94166.59;5027749;28;20073;-76
2022/12/14 00:38:37;;;;;;;13.30;7.22;;;;;;;-4.43;47.89;94169.69;5031201;28;20127;-75
2022/12/14 00:41:03;;;;;;;14.38;8.48;;;;;;;-4.27;53.68;94171.06;5011487;28;20545;-76
2022/12/14 00:43:28;;;;;;;5.97;3.60;;;;;;;-4.83;50.95;94160.63;5011876;28;20158;-75
2022/12/14 00:45:54;;;;;;;11.05;6.38;;;;;;;-4.51;49.42;94172.06;5043724;28;20105;-77
2022/12/14 00:48:20;;;;;;;12.38;6.20;;;;;;;-4.21;47.49;94162.78;5045182;28;20139;-74
2022/12/14 00:50:45;;;;;;;12.38;7.35;;;;;;;-3.80;49.82;94157.81;5027806;28;20132;-74
2022/12/14 00:53:11;;;;;;;10.00;5.25;;;;;;;-4.57;50.85;94171.59;5011832;28;20118;-75
2022/12/14 00:55:38;;;;;;;10.88;6.25;;;;;;;-4.30;50.32;94167.78;5044317;28;20077;-74
2022/12/14 00:58:03;;;;;;;11.88;6.90;;;;;;;-4.17;48.24;94165.00;5044930;28;20137;-75
2022/12/14 01:00:29;;;;;;;11.43;6.90;;;;;;;-4.26;48.02;94164.91;5044434;28;20088;-77
2022/12/14 01:02:54;;;;;;;9.98;4.85;;;;;;;-4.19;46.46;94168.69;5009087;28;20389;-74
2022/12/14 01:05:20;;;;;;;11.48;6.82;;;;;;;-4.46;44.71;94160.34;5026762;28;20113;-75
2022/12/14 01:07:45;;;;;;;11.07;6.45;;;;;;;-4.49;48.10;94159.78;5020970;28;20461;-76
2022/12/14 01:10:10;;;;;;;14.63;7.05;;;;;;;-4.28;46.29;94162.44;5043854;28;20154;-74
2022/12/14 01:12:36;;;;;;;12.00;7.07;;;;;;;-4.18;51.27;94171.16;5027758;28;20461;-76
2022/12/14 01:15:01;;;;;;;11.80;7.32;;;;;;;-3.96;49.52;94176.41;5047126;28;20099;-75
2022/12/14 01:17:27;;;;;;;14.02;8.10;;;;;;;-4.08;52.88;94168.66;5022801;28;20097;-77
2022/12/14 01:19:52;;;;;;;13.25;7.25;;;;;;;-4.20;48.22;94160.06;5022120;28;20085;-75
2022/12/14 01:22:17;;;;;;;13.75;8.07;;;;;;;-4.42;52.11;94163.53;5043310;28;20781;-76
2022/12/14 01:24:43;;;;;;;13.32;7.40;;;;;;;-4.31;50.80;94170.50;5039715;28;20085;-74
2022/12/14 01:27:09;;;;;;;14.82;9.00;;;;;;;-4.14;51.93;94163.94;5025078;28;20074;-76
2022/12/14 01:29:34;;;;;;;13.45;7.55;;;;;;;-4.07;50.97;94157.28;5046573;28;20606;-76
2022/12/14 01:32:00;;;;;;;13.73;8.23;;;;;;;-4.12;47.09;94156.84;5013258;28;20092;-76
2022/12/14 01:34:25;;;;;;;8.85;5.30;;;;;;;-4.32;46.56;94142.81;5042886;28;20117;-76
2022/12/14 01:36:50;;;;;;;13.40;7.50;;;;;;;-4.35;50.19;94138.72;5044115;28;20544;-74
2022/12/14 01:39:16;;;;;;;9.38;5.78;;;;;;;-4.48;48.19;94128.44;5043542;28;20081;-77
2022/12/14 01:41:47;;;;;;;14.85;8.23;;;;;;;-4.43;50.40;94125.50;5027582;28;20101;-75
2022/12/14 01:44:15;;;;;;;13.40;7.30;;;;;;;-4.54;49.50;94122.94;5028045;28;20077;-74
2022/12/14 01:46:57;;;;;;;13.30;7.28;;;;;;;-4.65;47.16;94135.00;5018196;28;20102;-77
2022/12/14 01:49:32;;;;;;;11.13;5.93;;;;;;;-4.69;46.95;94121.41;5019605;28;20117;-76
2022/12/14 01:52:13;;;;;;;8.70;4.97;;;;;;;-4.79;48.30;94104.09;5000394;28;20081;-75
2022/12/14 01:54:51;;;;;;;11.30;6.15;;;;;;;-4.44;47.95;94108.25;5016947;28;20546;-75
2022/12/14 01:57:17;;;;;;;9.27;5.05;;;;;;;-4.47;45.05;94109.34;5025979;28;20097;-76
2022/12/14 01:59:43;;;;;;;10.73;6.00;;;;;;;-4.32;45.13;94099.47;5044044;28;20105;-76
2022/12/14 02:02:08;;;;;;;11.45;4.93;;;;;;;-4.41;48.00;94108.03;4997273;28;20102;-77
2022/12/14 02:04:34;;;;;;;12.93;6.70;;;;;;;-4.12;47.83;94104.00;5021566;28;20078;-77
2022/12/14 02:07:00;;;;;;;9.85;5.65;;;;;;;-4.40;47.36;94094.06;5008508;28;20100;-77
2022/12/14 02:09:27;;;;;;;9.63;5.30;;;;;;;-4.46;48.94;94090.19;5008325;28;20110;-77
2022/12/14 02:12:10;;;;;;;10.52;5.88;;;;;;;-4.36;47.33;94073.84;4992192;28;20143;-77
2022/12/14 02:14:35;;;;;;;9.55;5.68;;;;;;;-4.49;45.82;94071.44;5026271;28;20160;-77
2022/12/14 02:17:00;;;;;;;8.98;5.55;;;;;;;-4.32;48.76;94070.06;5022170;28;20098;-77
2022/12/14 02:19:26;;;;;;;9.02;5.80;;;;;;;-4.37;48.40;94060.06;5001512;28;20082;-77
2022/12/14 02:22:25;;;;;;;13.77;6.82;;;;;;;-4.32;47.37;94068.28;4994972;28;20102;-77
2022/12/14 02:25:12;;;;;;;10.02;5.70;;;;;;;-4.43;43.29;94060.53;5017060;28;20579;-77
2022/12/14 02:28:09;;;;;;;10.13;5.63;;;;;;;-4.21;49.62;94061.41;5017857;28;20147;-77
2022/12/14 02:30:38;;;;;;;13.63;6.35;;;;;;;-4.21;48.99;94051.81;5005196;28;20477;-77
2022/12/14 02:33:23;;;;;;;9.60;5.70;;;;;;;-4.20;47.73;94047.47;5017013;28;20704;-77
2022/12/14 02:35:58;;;;;;;9.23;4.90;;;;;;;-4.47;47.65;94046.97;4996139;28;20197;-77
2022/12/14 02:38:36;;;;;;;6.30;3.55;;;;;;;-4.73;44.07;94042.09;4998993;28;20203;-77
2022/12/14 02:41:26;;;;;;;12.65;7.43;;;;;;;-4.22;50.24;94044.97;5013359;28;20609;-77
2022/12/14 02:44:10;;;;;;;11.77;6.75;;;;;;;-4.30;47.92;94030.03;5016410;28;20081;-77
2022/12/14 02:46:56;;;;;;;11.07;6.43;;;;;;;-4.22;47.06;94019.00;5013280;28;20240;-77
2022/12/14 02:49:51;;;;;;;11.77;6.50;;;;;;;-4.39;49.69;94025.56;5002213;28;20619;-77
2022/12/14 02:52:26;;;;;;;10.05;5.75;;;;;;;-4.49;48.39;94011.69;5010699;28;20167;-77
2022/12/14 02:55:04;;;;;;;10.00;5.47;;;;;;;-4.48;46.82;94018.53;5043433;28;20182;-77
2022/12/14 02:57:35;;;;;;;11.20;5.38;;;;;;;-4.56;44.54;94009.56;5010837;28;20101;-77
2022/12/14 03:00:00;;;;;;;12.27;6.93;;;;;;;-4.47;48.89;94015.81;5021655;28;20517;-77
2022/12/14 03:02:26;;;;;;;9.88;5.95;;;;;;;-4.35;50.94;94021.75;5005079;28;20637;-77
2022/12/14 03:04:51;;;;;;;8.68;5.13;;;;;;;-4.46;47.31;94016.59;4992367;28;20111;-77
2022/12/14 03:07:30;;;;;;;9.88;5.90;;;;;;;-4.48;48.29;94021.94;5044604;28;20077;-77
2022/12/14 03:09:56;;;;;;;11.15;5.65;;;;;;;-4.58;51.31;94014.06;5044034;28;20123;-77
2022/12/14 03:12:22;;;;;;;9.73;5.90;;;;;;;-4.53;51.03;94012.84;5025253;28;20100;-76
2022/12/14 03:14:49;;;;;;;12.18;6.47;;;;;;;-4.49;49.21;94014.28;5042594;28;20582;-77
2022/12/14 03:17:18;;;;;;;9.57;5.43;;;;;;;-4.76;46.68;94000.78;5023236;28;20123;-77
2022/12/14 03:19:46;;;;;;;11.88;6.32;;;;;;;-4.27;52.46;94005.56;5042642;28;20077;-77
2022/12/14 03:22:17;;;;;;;8.80;5.05;;;;;;;-4.24;48.67;93999.28;5032695;28;20115;-77
2022/12/14 03:24:46;;;;;;;10.57;6.05;;;;;;;-4.22;51.99;94000.78;5022707;28;20078;-77
2022/12/14 03:27:23;;;;;;;9.67;5.80;;;;;;;-4.33;50.21;93999.09;4997371;28;20186;-77
2022/12/14 03:29:54;;;;;;;10.15;6.40;;;;;;;-4.33;50.38;93988.69;4985523;28;20181;-77
2022/12/14 03:32:22;;;;;;;9.63;6.13;;;;;;;-4.23;50.51;93985.31;5018379;28;20111;-77
2022/12/14 03:35:46;;;;;;;10.32;5.60;;;;;;;-4.33;50.11;94001.69;5020812;28;20117;-77
2022/12/14 03:38:35;;;;;;;11.18;5.70;;;;;;;-4.49;51.67;93996.91;5029170;28;20252;-76
2022/12/14 03:41:08;;;;;;;9.48;6.18;;;;;;;-4.28;52.23;93987.50;5003795;28;20180;-77
2022/12/14 03:43:44;;;;;;;8.23;5.03;;;;;;;-4.49;46.25;93964.91;5032890;28;20562;-77
2022/12/14 03:46:13;;;;;;;10.07;5.90;;;;;;;-4.36;50.97;93975.09;5030580;28;20112;-77
2022/12/14 03:48:39;;;;;;;9.40;5.03;;;;;;;-4.50;50.74;93965.84;5029635;28;20073;-77
2022/12/14 03:51:19;;;;;;;8.23;4.93;;;;;;;-4.59;46.10;93970.84;5027730;28;20620;-77
2022/12/14 03:54:33;;;;;;;11.40;5.68;;;;;;;-4.32;50.44;93969.53;4994491;28;20607;-77
2022/12/14 03:57:26;;;;;;;10.18;5.60;;;;;;;-4.54;50.58;93957.50;4986823;28;20148;-77
2022/12/14 04:00:03;;;;;;;8.95;5.18;;;;;;;-4.28;50.29;93957.09;5027226;28;20096;-77
2022/12/14 04:02:48;;;;;;;9.45;4.70;;;;;;;-4.38;50.04;93957.03;5024867;28;20250;-77
2022/12/14 04:05:16;;;;;;;8.48;4.88;;;;;;;-4.48;44.92;93958.78;5030719;28;20176;-77
2022/12/14 04:07:58;;;;;;;8.70;5.03;;;;;;;-4.47;45.28;93956.03;5045766;28;20415;-77
2022/12/14 04:19:12;;;;;;;8.70;4.93;;;;;;;-4.14;46.33;93947.34;5031376;28;20120;-77
2022/12/14 04:21:48;;;;;;;8.35;5.07;;;;;;;-4.26;45.12;93956.97;5002665;28;20105;-77
2022/12/14 04:27:23;;;;;;;8.85;4.60;;;;;;;-4.28;47.38;93954.50;5015024;28;20188;-77
2022/12/14 04:29:59;;;;;;;8.15;5.10;;;;;;;-4.45;47.71;93948.94;5011604;28;20165;-77
2022/12/14 04:32:39;;;;;;;8.13;4.63;;;;;;;-4.31;47.46;93952.19;5035040;28;20632;-77
2022/12/14 04:35:10;;;;;;;8.40;4.88;;;;;;;-4.19;46.78;93951.16;5027039;28;20180;-77
2022/12/14 04:37:36;;;;;;;8.80;5.25;;;;;;;-4.18;51.49;93946.78;5020642;28;20106;-77
2022/12/14 04:40:06;;;;;;;10.52;4.90;;;;;;;-4.11;50.86;93947.09;5002678;28;20077;-77
2022/12/14 04:42:34;;;;;;;7.90;4.85;;;;;;;-4.26;47.40;93954.38;5018339;28;20128;-77
2022/12/14 04:45:05;;;;;;;8.88;4.93;;;;;;;-3.82;50.23;93936.84;5003087;28;20105;-77
2022/12/14 04:47:33;;;;;;;8.18;4.70;;;;;;;-4.04;42.75;93941.25;5023038;28;20109;-77
2022/12/14 04:50:04;;;;;;;8.57;4.80;;;;;;;-3.87;48.22;93940.78;5016817;28;20650;-77
2022/12/14 04:52:38;;;;;;;6.55;4.15;;;;;;;-4.09;46.60;93943.41;5021125;28;20333;-77
2022/12/14 04:55:24;;;;;;;6.30;4.00;;;;;;;-4.21;48.29;93942.66;5022248;28;20562;-77
2022/12/14 04:58:23;;;;;;;8.73;4.78;;;;;;;-3.67;51.37;93939.09;5044591;28;20101;-77
2022/12/14 05:01:06;;;;;;;7.85;4.82;;;;;;;-4.04;41.26;93949.03;5015686;28;20102;-77
2022/12/14 05:03:33;;;;;;;8.73;4.43;;;;;;;-4.08;50.19;93952.06;5028086;28;20453;-77
2022/12/14 05:06:04;;;;;;;9.02;3.97;;;;;;;-4.33;48.43;93943.69;5007252;28;20137;-77
2022/12/14 05:08:41;;;;;;;8.45;4.22;;;;;;;-4.37;48.33;93947.47;5021101;28;20090;-77
2022/12/14 05:11:39;;;;;;;9.93;5.15;;;;;;;-4.14;46.90;93940.38;5045628;28;20170;-77
2022/12/14 05:14:10;;;;;;;8.10;4.60;;;;;;;-4.09;51.61;93926.97;5009077;28;20453;-77
2022/12/14 05:16:35;;;;;;;8.45;4.95;;;;;;;-3.79;49.62;93920.97;5027296;28;20769;-77
2022/12/14 05:19:01;;;;;;;9.15;4.90;;;;;;;-4.23;44.55;93923.78;5026718;28;20073;-77
2022/12/14 05:24:10;;;;;;;9.95;5.40;;;;;;;-3.66;44.84;93914.72;5018630;28;20169;-77
2022/12/14 05:26:35;;;;;;;7.88;4.75;;;;;;;-4.10;49.62;93918.38;5016692;28;20117;-77
2022/12/14 05:29:01;;;;;;;8.25;4.88;;;;;;;-4.41;46.08;93910.53;5015540;28;20178;-77
2022/12/14 05:31:26;;;;;;;7.43;4.22;;;;;;;-4.42;47.56;93903.69;4995350;28;20074;-76
2022/12/14 05:33:52;;;;;;;9.48;5.15;;;;;;;-4.20;49.02;93907.09;5019125;28;20116;-76
2022/12/14 05:36:18;;;;;;;8.50;4.93;;;;;;;-4.25;46.51;93902.28;5016329;28;20082;-77
2022/12/14 05:38:43;;;;;;;9.25;4.97;;;;;;;-4.24;47.17;93892.72;5012571;28;20590;-76
2022/12/14 05:41:09;;;;;;;8.57;4.72;;;;;;;-4.01;52.92;93882.97;5016261;28;20130;-77
2022/12/14 05:43:34;;;;;;;8.90;3.97;;;;;;;-4.46;45.47;93882.34;5019259;28;20078;-77
2022/12/14 05:46:00;;;;;;;10.82;5.28;;;;;;;-4.01;46.99;93880.34;5034528;28;20554;-77
2022/12/14 05:48:26;;;;;;;8.90;5.07;;;;;;;-4.08;48.13;93885.25;5030422;28;20534;-77
2022/12/14 05:50:51;;;;;;;7.80;4.45;;;;;;;-4.22;46.56;93883.00;5029667;28;20121;-77
2022/12/14 05:53:17;;;;;;;9.70;5.38;;;;;;;-3.99;45.92;93878.47;4993502;28;20763;-76
2022/12/14 05:55:49;;;;;;;9.80;4.93;;;;;;;-4.05;49.88;93873.78;5012191;28;20082;-77
2022/12/14 05:58:15;;;;;;;7.72;4.28;;;;;;;-4.30;48.55;93874.09;5019910;28;20112;-77
2022/12/14 06:00:40;;;;;;;7.35;4.32;;;;;;;-4.43;48.87;93860.47;5000463;28;20476;-76
2022/12/14 06:03:06;;;;;;;7.03;4.35;;;;;;;-4.18;44.75;93858.38;5014628;28;20071;-77
2022/12/14 06:05:31;;;;;;;8.50;4.97;;;;;;;-3.80;49.31;93850.88;5017164;28;20114;-77
2022/12/14 06:07:57;;;;;;;10.63;4.82;;;;;;;-4.36;48.88;93847.78;4993713;28;20107;-77
2022/12/14 06:10:22;;;;;;;9.55;5.20;;;;;;;-4.06;48.79;93846.13;5015066;28;20137;-77
2022/12/14 06:12:48;;;;;;;7.45;4.63;;;;;;;-3.83;52.15;93844.19;5018037;28;20151;-77
2022/12/14 06:15:13;;;;;;;8.00;4.63;;;;;;;-3.94;47.25;93839.88;5013346;28;20083;-77
2022/12/14 06:17:42;;;;;;;6.93;4.38;;;;;;;-3.77;45.24;93832.38;5018359;28;20102;-77
2022/12/14 06:20:09;;;;;;;9.25;5.20;;;;;;;-3.54;48.26;93835.59;4992220;28;20093;-77
2022/12/14 06:22:35;;;;;;;9.30;4.80;;;;;;;-3.41;49.38;93834.53;5011638;28;20172;-77
2022/12/14 06:25:00;;;;;;;10.38;5.20;;;;;;;-3.54;48.36;93827.81;5014580;28;20110;-77
2022/12/14 06:27:26;;;;;;;8.65;4.70;;;;;;;-3.26;48.48;93829.72;5017375;28;20096;-76
2022/12/14 06:29:51;;;;;;;7.95;4.85;;;;;;;-3.28;47.29;93829.06;4987910;28;20105;-77
2022/12/14 06:32:16;;;;;;;9.65;4.65;;;;;;;-3.24;47.07;93827.00;5020423;28;20592;-77
2022/12/14 06:34:43;;;;;;;8.60;4.80;;;;;;;-3.12;49.16;93812.91;5025769;28;20341;-77
2022/12/14 06:37:09;;;;;;;7.63;4.35;;;;;;;-3.07;48.87;93815.06;5026088;28;20101;-77
2022/12/14 06:39:34;;;;;;;9.88;5.07;;;;;;;-3.22;44.59;93807.69;5043937;28;20453;-77
2022/12/14 06:42:00;;;;;;;10.07;5.75;;;;;;;-3.39;43.04;93804.00;5023869;28;20147;-77
2022/12/14 06:44:25;;;;;;;7.57;5.05;;;;;;;-3.25;48.97;93817.53;5046003;28;20447;-77
2022/12/14 06:46:51;;;;;;;8.82;4.85;;;;;;;-3.42;46.86;93812.06;5043694;28;20174;-77
2022/12/14 06:49:16;;;;;;;8.27;5.00;;;;;;;-3.34;45.92;93807.00;5024289;28;20522;-77
2022/12/14 06:51:42;;;;;;;8.90;5.10;;;;;;;-3.23;49.65;93810.44;5026864;28;20508;-77
2022/12/14 06:54:09;;;;;;;7.65;4.78;;;;;;;-3.20;48.52;93820.53;5026889;28;20109;-77
2022/12/14 06:56:35;;;;;;;8.75;4.97;;;;;;;-3.19;48.41;93811.81;5010948;28;20085;-77
2022/12/14 06:59:00;;;;;;;12.07;5.50;;;;;;;-3.25;48.78;93812.34;5039942;28;20298;-77
2022/12/14 07:01:27;;;;;;;9.02;4.97;;;;;;;-3.04;49.53;93813.03;5043643;28;20409;-77
2022/12/14 07:03:54;;;;;;;7.95;5.05;;;;;;;-3.38;49.06;93818.63;5045101;28;20085;-77
2022/12/14 07:06:20;;;;;;;10.55;5.10;;;;;;;-3.24;48.28;93819.19;5018299;28;20110;-77
2022/12/14 07:08:46;;;;;;;9.98;5.05;;;;;;;-3.05;48.79;93818.38;5006051;28;20069;-77
2022/12/14 07:11:12;;;;;;;10.90;5.25;;;;;;;-3.03;48.88;93817.28;5019876;28;20565;-77
2022/12/14 07:13:38;;;;;;;10.70;5.63;;;;;;;-3.01;45.82;93814.53;5007405;28;20113;-77
2022/12/14 07:16:04;;;;;;;8.48;5.18;;;;;;;-2.83;49.90;93819.84;5007587;28;20078;-77
2022/12/14 07:18:29;;;;;;;8.63;4.95;;;;;;;-2.98;49.06;93816.88;5042798;28;20111;-77
2022/12/14 07:21:05;;;;;;;8.75;4.72;;;;;;;-2.79;49.65;93812.56;5025559;28;20596;-77
2022/12/14 07:23:32;;;;;;;9.52;5.30;;;;;;;-2.74;49.01;93823.41;5045668;28;20101;-77
2022/12/14 07:26:02;;;;;;;7.25;5.10;;;;;;;-2.99;47.93;93819.59;5007626;28;20188;-77
2022/12/14 07:28:28;;;;;;;9.18;5.47;;;;;;;-2.97;45.99;93825.47;5040223;28;20108;-67
2022/12/14 07:30:59;;;;;;;9.80;5.03;;;;;;;-2.89;45.67;93820.41;5041187;28;20115;-66
2022/12/14 07:33:25;;;;;;;7.95;5.18;;;;;;;-2.79;46.87;93826.44;5039548;28;20106;-66
2022/12/14 07:35:50;;;;;;;14.68;8.00;;;;;;;-3.04;48.22;93831.25;5041340;28;20089;-67
2022/12/14 07:38:16;;;;;;;18.05;10.95;;;;;;;-3.31;47.08;93831.91;5040925;28;20102;-66
2022/12/14 07:40:42;;;;;;;15.82;9.32;;;;;;;-3.28;45.85;93837.69;5043284;28;20085;-66
2022/12/14 07:43:08;;;;;;;19.48;8.82;;;;;;;-3.14;44.01;93838.25;5043562;28;20545;-67
2022/12/14 07:45:33;;;;;;;17.65;9.50;;;;;;;-3.10;48.32;93836.16;5040392;28;20098;-67
2022/12/14 07:47:58;;;;;;;12.60;7.22;;;;;;;-3.29;44.78;93843.03;5037154;28;20457;-67
2022/12/14 07:50:24;;;;;;;13.20;7.25;;;;;;;-2.96;48.66;93848.78;5042801;28;20129;-66
2022/12/14 07:52:49;;;;;;;14.23;7.60;;;;;;;-2.98;49.08;93860.31;5038007;28;20093;-67
2022/12/14 07:55:15;;;;;;;13.98;8.38;;;;;;;-2.81;50.54;93862.22;5024924;28;20100;-66
2022/12/14 07:57:40;;;;;;;15.27;8.45;;;;;;;-2.94;48.07;93856.47;5031908;28;20093;-67
2022/12/14 08:00:06;;;;;;;15.05;8.85;;;;;;;-3.14;47.59;93856.47;5044688;28;20488;-66
2022/12/14 08:02:31;;;;;;;17.35;10.20;;;;;;;-2.95;48.80;93855.63;5039669;28;20109;-67
2022/12/14 08:04:57;;;;;;;16.95;10.07;;;;;;;-3.16;44.47;93847.97;5042410;28;20738;-67
2022/12/14 08:07:22;;;;;;;19.88;9.88;;;;;;;-3.30;48.71;93847.41;5041962;28;20073;-67
2022/12/14 08:09:47;;;;;;;16.73;9.38;;;;;;;-3.48;42.56;93855.06;5037395;28;20097;-66
2022/12/14 08:12:13;;;;;;;18.15;8.38;;;;;;;-3.52;45.10;93848.47;5038261;28;20085;-66
2022/12/14 08:14:38;;;;;;;19.25;11.90;;;;;;;-3.47;45.62;93846.28;5040130;28;20117;-67
2022/12/14 08:17:04;;;;;;;19.98;12.18;;;;;;;-3.49;48.77;93843.00;5037678;28;20114;-66
2022/12/14 08:19:29;;;;;;;21.30;11.40;;;;;;;-3.58;47.26;93841.19;5039114;28;20261;-66
2022/12/14 08:21:54;;;;;;;16.52;9.32;;;;;;;-3.34;44.25;93832.19;5030468;28;20110;-67
2022/12/14 08:24:20;;;;;;;24.17;14.52;;;;;;;-3.14;48.93;93830.44;5038136;28;20074;-65
2022/12/14 08:26:45;;;;;;;24.13;14.40;;;;;;;-3.13;47.37;93829.47;5020673;28;20102;-67
2022/12/14 08:29:13;;;;;;;15.65;9.40;;;;;;;-3.31;42.39;93835.34;5016828;28;20498;-66
2022/12/14 08:31:39;;;;;;;26.88;16.67;;;;;;;-3.01;49.44;93827.56;5017497;28;20118;-66
2022/12/14 08:34:04;;;;;;;23.42;14.23;;;;;;;-3.06;48.05;93827.16;5015699;28;20599;-67
2022/12/14 08:36:32;;;;;;;25.38;15.57;;;;;;;-2.88;46.44;93829.88;5015117;28;20078;-66
2022/12/14 08:38:59;;;;;;;26.25;16.05;;;;;;;-2.87;46.72;93823.69;5015361;28;20101;-66
2022/12/14 08:41:25;;;;;;;27.13;16.60;;;;;;;-2.68;48.64;93827.25;5017622;28;20101;-66
2022/12/14 08:43:52;;;;;;;24.17;15.27;;;;;;;-2.59;46.74;93828.16;5016973;28;20132;-66
2022/12/14 08:46:18;;;;;;;29.58;19.55;;;;;;;-2.28;49.66;93827.94;5015618;28;20114;-66
2022/12/14 08:48:44;;;;;;;32.28;18.80;;;;;;;-2.21;47.44;93825.63;5015651;28;20185;-66
2022/12/14 08:51:09;;;;;;;28.45;17.83;;;;;;;-2.25;47.92;93835.50;5017081;28;20505;-66
2022/12/14 08:53:35;;;;;;;30.20;17.90;;;;;;;-2.20;46.98;93837.69;5027893;28;20114;-67
2022/12/14 08:56:12;;;;;;;21.30;13.85;;;;;;;-2.51;47.41;93836.94;5046902;28;20387;-66
2022/12/14 08:58:38;;;;;;;30.20;18.30;;;;;;;-2.22;47.50;93844.81;5045806;28;20166;-67
2022/12/14 09:01:24;;;;;;;25.95;15.60;;;;;;;-2.33;45.73;93854.47;5041136;28;20093;-66
2022/12/14 09:03:50;;;;;;;25.67;16.13;;;;;;;-2.32;46.80;93855.25;5025563;28;20101;-66
2022/12/14 09:06:17;;;;;;;27.33;17.77;;;;;;;-1.98;47.96;93852.97;5046314;28;20113;-66
2022/12/14 09:08:43;;;;;;;28.88;18.48;;;;;;;-1.89;47.58;93853.06;5039670;28;20106;-66
2022/12/14 09:11:12;;;;;;;29.75;19.27;;;;;;;-1.76;48.18;93856.16;5043323;28;20091;-67
2022/12/14 09:13:37;;;;;;;;;;;;;;;-1.56;48.44;93861.28;5046653;28;20139;-66
2022/12/14 09:16:05;;;;;;;31.67;20.73;;;;;;;-1.44;46.89;93861.06;5040167;28;20430;-67
2022/12/14 09:18:30;;;;;;;30.90;20.58;;;;;;;-1.41;46.83;93855.56;5041150;28;20435;-67
2022/12/14 09:20:56;;;;;;;30.20;18.63;;;;;;;-1.34;46.12;93864.47;5042829;28;20155;-66
2022/12/14 09:23:22;;;;;;;31.85;21.45;;;;;;;-1.25;47.06;93867.97;5044275;28;20529;-67
2022/12/14 09:26:00;;;;;;;34.63;21.60;;;;;;;-1.25;46.89;93863.56;5045749;28;20116;-66
2022/12/14 09:28:26;;;;;;;35.40;24.35;;;;;;;-1.09;45.78;93854.25;5043655;28;20088;-66
2022/12/14 09:30:59;;;;;;;38.13;26.23;;;;;;;-0.95;45.76;93863.38;5042308;28;20317;-67
2022/12/14 09:33:25;;;;;;;38.42;26.38;;;;;;;-0.82;46.06;93858.59;5038737;28;20510;-67
2022/12/14 09:35:50;;;;;;;35.88;23.65;;;;;;;-0.77;45.78;93860.78;5038094;28;20085;-67
2022/12/14 09:38:16;;;;;;;34.15;22.13;;;;;;;-0.87;43.06;93857.41;5039845;28;20116;-66
2022/12/14 09:40:44;;;;;;;35.72;24.67;;;;;;;-0.79;44.46;93861.88;5043312;28;20088;-67
2022/12/14 09:43:09;;;;;;;32.40;21.83;;;;;;;-0.83;44.84;93856.16;5042136;28;20160;-67
2022/12/14 09:45:40;;;;;;;34.03;22.77;;;;;;;-0.73;44.73;93862.13;5025627;28;20120;-66
2022/12/14 09:48:17;;;;;;;27.98;18.77;;;;;;;-0.70;45.02;93855.75;5041272;28;20504;-67
2022/12/14 09:50:45;;;;;;;30.17;19.13;;;;;;;-0.60;44.50;93855.69;5035382;28;20200;-66
2022/12/14 09:53:11;;;;;;;31.70;21.35;;;;;;;-0.52;45.15;93860.13;5022698;28;20109;-67
2022/12/14 09:55:49;;;;;;;35.10;22.92;;;;;;;-0.50;44.48;93850.34;5025123;28;20101;-67
2022/12/14 09:58:24;;;;;;;32.75;20.67;;;;;;;-0.47;45.13;93856.09;5000817;28;20204;-66
2022/12/14 10:01:23;;;;;;;29.13;19.20;;;;;;;-0.58;45.07;93854.53;5018411;28;20152;-65
2022/12/14 10:04:00;;;;;;;;;;;;;;;-0.34;45.39;93860.13;5038655;28;20080;-66
2022/12/14 10:06:29;;;;;;;30.75;20.52;;;;;;;-0.29;45.18;93852.63;5039728;28;19980;-66
2022/12/14 10:09:20;;;;;;;22.75;15.57;;;;;;;-0.47;41.43;93845.63;5045984;28;20118;-67
2022/12/14 10:12:11;;;;;;;22.90;14.80;;;;;;;-0.35;44.18;93845.38;5037613;28;20496;-67
2022/12/14 10:14:49;;;;;;;29.63;19.75;;;;;;;-0.14;43.81;93841.59;5041067;28;20265;-67
2022/12/14 10:17:28;;;;;;;27.55;18.70;;;;;;;-0.14;43.78;93841.59;5040171;28;20106;-67
2022/12/14 10:19:54;;;;;;;34.72;21.65;;;;;;;0.03;44.56;93840.69;5040309;28;20505;-65
2022/12/14 10:22:24;;;;;;;34.75;23.45;;;;;;;0.21;44.59;93839.81;5039814;28;20109;-66
2022/12/14 10:24:53;;;;;;;33.50;23.48;;;;;;;0.34;44.40;93842.78;5038344;28;20547;-66
2022/12/14 10:27:22;;;;;;;;;;;;;;;0.43;40.71;93843.66;5026418;28;20176;-67
2022/12/14 10:29:59;;;;;;;;;;;;;;;0.66;43.64;93844.84;5041937;28;20365;-66
2022/12/14 10:32:48;;;;;;;38.90;26.55;;;;;;;0.74;43.27;93842.25;5043148;28;20063;-66
2022/12/14 10:35:18;;;;;;;36.30;23.88;;;;;;;1.04;42.63;93842.63;5030877;28;20125;-65
2022/12/14 10:38:08;;;;;;;26.55;17.15;;;;;;;1.11;41.28;93834.94;5041547;28;20105;-68
2022/12/14 10:40:33;;;;;;;33.08;20.85;;;;;;;1.33;41.37;93822.97;5041818;28;20422;-67
2022/12/14 10:43:28;;;;;;;40.55;25.35;;;;;;;1.28;42.52;93822.66;5035841;28;20135;-67
2022/12/14 10:46:03;;;;;;;29.08;20.55;;;;;;;1.32;41.74;93823.97;5024099;28;20604;-65
2022/12/14 10:48:41;;;;;;;32.33;21.60;;;;;;;1.43;41.71;93822.00;5040245;28;20112;-67
2022/12/14 10:51:33;;;;;;;32.00;22.58;;;;;;;1.47;41.06;93818.84;5020131;28;20128;-67
2022/12/14 10:54:37;;;;;;;33.13;20.73;;;;;;;1.61;41.12;93812.16;5034873;28;20117;-68
2022/12/14 10:57:02;;;;;;;38.10;26.20;;;;;;;1.75;40.94;93810.66;5041747;28;20113;-67
2022/12/14 10:59:30;;;;;;;33.47;23.58;;;;;;;1.77;40.44;93815.72;5043475;28;20499;-66
2022/12/14 11:02:05;;;;;;;35.35;22.75;;;;;;;1.93;39.51;93814.06;5043664;28;20105;-68
2022/12/14 11:04:47;;;;;;;36.63;26.35;;;;;;;2.27;39.51;93818.22;5040378;28;20197;-66
2022/12/14 11:07:17;;;;;;;42.78;27.45;;;;;;;2.55;37.92;93815.13;5032315;28;20426;-68
2022/12/14 11:09:42;;;;;;;31.30;22.98;;;;;;;2.72;38.49;93817.69;5039636;28;20604;-68
2022/12/14 11:12:22;;;;;;;34.75;24.85;;;;;;;3.06;37.08;93813.81;5039260;28;20077;-67
2022/12/14 11:15:02;;;;;;;34.20;23.20;;;;;;;3.37;37.07;93814.75;5019053;28;20204;-68
2022/12/14 11:17:38;;;;;;;32.42;21.98;;;;;;;3.22;37.29;93818.16;5035077;28;20275;-67
2022/12/14 11:20:17;;;;;;;33.72;25.13;;;;;;;3.62;37.53;93815.41;5038002;28;20084;-67
2022/12/14 11:22:47;;;;;;;33.50;24.60;;;;;;;3.45;37.37;93813.91;5040786;28;20560;-68
2022/12/14 11:25:31;;;;;;;40.13;28.10;;;;;;;3.77;36.66;93811.94;5038424;28;20097;-67
2022/12/14 11:28:02;;;;;;;40.47;29.63;;;;;;;3.87;36.69;93809.06;5041293;28;20734;-67
2022/12/14 11:30:27;;;;;;;45.17;31.77;;;;;;;3.95;36.51;93806.38;5018052;28;20105;-68
2022/12/14 11:32:53;;;;;;;43.38;29.95;;;;;;;4.03;36.47;93800.16;5017023;28;20124;-66
2022/12/14 11:35:19;;;;;;;35.72;25.15;;;;;;;4.04;30.96;93805.25;5014945;28;20098;-68
2022/12/14 11:37:46;;;;;;;42.40;29.30;;;;;;;3.98;34.96;93807.81;5011930;28;20104;-68
2022/12/14 11:40:21;;;;;;;41.88;29.63;;;;;;;4.44;35.73;93793.59;4996676;28;20173;-67
2022/12/14 11:42:48;;;;;;;44.75;32.85;;;;;;;4.94;34.44;93796.38;5014479;28;20092;-67
2022/12/14 11:45:24;;;;;;;29.33;19.92;;;;;;;5.34;29.59;93792.53;5012245;28;20186;-66
2022/12/14 11:48:13;;;;;;;38.78;28.77;;;;;;;5.67;33.18;93797.25;5012152;28;20083;-68
2022/12/14 11:50:40;;;;;;;36.28;25.60;;;;;;;6.30;30.71;93792.13;5003919;28;20621;-67
2022/12/14 11:53:09;;;;;;;32.25;21.45;;;;;;;6.68;31.36;93793.53;5013371;28;20117;-66
2022/12/14 11:55:37;;;;;;;34.53;21.80;;;;;;;5.81;30.94;93799.97;5014442;28;20111;-67
2022/12/14 11:58:02;;;;;;;38.23;28.60;;;;;;;5.50;32.89;93801.19;5014312;28;20687;-68